createdAt,value
2022-10-05T00:01:45.710Z,71.23
2022-10-05T00:04:16.261Z,71.50
2022-10-05T00:06:45.682Z,71.65
2022-10-05T00:09:18.985Z,73.21
2022-10-05T00:11:47.002Z,72.54
2022-10-05T00:14:20.194Z,72.64
2022-10-05T00:16:48.237Z,71.69
2022-10-05T00:19:22.987Z,69.86
2022-10-05T00:21:50.738Z,68.69
2022-10-05T00:24:20.917Z,68.14
2022-10-05T00:26:55.381Z,67.85
2022-10-05T00:29:25.559Z,68.15
2022-10-05T00:31:53.466Z,68.17
2022-10-05T00:34:21.293Z,69.15
2022-10-05T00:36:49.396Z,69.80
2022-10-05T00:39:20.362Z,69.13
2022-10-05T00:42:04.410Z,68.71
2022-10-05T00:44:45.536Z,68.73
2022-10-05T00:47:25.077Z,69.76
2022-10-05T00:50:06.314Z,71.76
2022-10-05T00:52:42.504Z,72.69
2022-10-05T00:55:15.030Z,71.67
2022-10-05T00:57:50.110Z,71.95
2022-10-05T01:00:20.605Z,70.64
2022-10-05T01:02:53.899Z,69.57
2022-10-05T01:05:37.218Z,70.47
2022-10-05T01:08:12.036Z,71.23
2022-10-05T01:10:46.436Z,72.10
2022-10-05T01:13:22.198Z,71.93
2022-10-05T01:15:54.354Z,72.64
2022-10-05T01:18:27.186Z,72.34
2022-10-05T01:21:00.968Z,72.46
2022-10-05T01:23:52.566Z,71.45
2022-10-05T01:26:37.062Z,72.20
2022-10-05T01:29:10.870Z,72.89
2022-10-05T01:31:43.785Z,73.58
2022-10-05T01:34:17.323Z,73.17
2022-10-05T01:36:49.890Z,72.97
2022-10-05T01:39:23.766Z,72.94
2022-10-05T01:41:57.015Z,73.69
2022-10-05T01:44:32.305Z,73.47
2022-10-05T01:47:04.691Z,74.00
2022-10-05T01:49:38.794Z,73.61
2022-10-05T01:52:15.759Z,73.40
2022-10-05T01:54:52.795Z,73.55
2022-10-05T01:57:30.232Z,73.00
2022-10-05T02:00:07.972Z,73.31
2022-10-05T02:02:44.447Z,73.91
2022-10-05T02:05:17.165Z,74.73
2022-10-05T02:07:50.532Z,74.59
2022-10-05T02:10:23.443Z,73.33
2022-10-05T02:12:55.784Z,73.66
2022-10-05T02:15:30.196Z,72.56
2022-10-05T02:18:00.896Z,74.06
2022-10-05T02:20:31.549Z,74.04
2022-10-05T02:23:04.250Z,73.16
2022-10-05T02:25:34.805Z,73.06
2022-10-05T02:28:05.809Z,71.73
2022-10-05T02:30:39.985Z,70.75
2022-10-05T02:33:11.772Z,72.38
2022-10-05T02:35:39.688Z,72.54
2022-10-05T02:38:12.647Z,72.58
2022-10-05T02:40:47.731Z,71.50
2022-10-05T02:43:22.398Z,71.88
2022-10-05T02:45:59.530Z,71.35
2022-10-05T02:48:35.706Z,72.19
2022-10-05T02:51:07.837Z,72.42
2022-10-05T02:53:40.606Z,71.33
2022-10-05T02:56:19.534Z,71.69
2022-10-05T02:58:57.013Z,71.85
2022-10-05T03:01:29.459Z,71.39
2022-10-05T03:04:06.236Z,71.26
2022-10-05T03:06:39.728Z,72.25
2022-10-05T03:09:08.487Z,70.82
2022-10-05T03:11:42.931Z,70.85
2022-10-05T03:14:14.681Z,72.29
2022-10-05T03:16:51.011Z,72.82
2022-10-05T03:19:37.104Z,72.23
2022-10-05T03:22:09.870Z,71.58
2022-10-05T03:24:48.315Z,71.47
2022-10-05T03:27:27.763Z,70.75
2022-10-05T03:29:59.365Z,71.24
2022-10-05T03:32:35.858Z,71.86
2022-10-05T03:35:07.767Z,73.57
2022-10-05T03:37:42.998Z,73.22
2022-10-05T03:40:23.074Z,72.24
2022-10-05T03:43:03.068Z,71.91
2022-10-05T03:45:36.592Z,71.85
2022-10-05T03:48:09.814Z,71.44
2022-10-05T03:50:45.615Z,71.11
2022-10-05T03:53:18.609Z,70.48
2022-10-05T03:55:50.294Z,71.19
2022-10-05T03:58:22.647Z,70.63
2022-10-05T04:00:54.483Z,70.33
2022-10-05T04:03:27.473Z,70.22
2022-10-05T04:05:57.333Z,71.96
2022-10-05T04:08:31.722Z,71.26
2022-10-05T04:11:03.206Z,70.83
2022-10-05T04:13:36.623Z,72.45
2022-10-05T04:16:09.533Z,73.07
2022-10-05T04:18:41.318Z,74.49
2022-10-05T04:21:12.766Z,74.24
2022-10-05T04:23:46.012Z,74.70
2022-10-05T04:26:16.787Z,74.86
2022-10-05T04:28:51.003Z,75.34
2022-10-05T04:31:29.349Z,74.81
2022-10-05T04:34:09.226Z,74.67
2022-10-05T04:36:42.431Z,74.51
2022-10-05T04:39:17.270Z,74.42
2022-10-05T04:41:57.847Z,74.17
2022-10-05T04:44:45.922Z,74.69
2022-10-05T04:47:28.592Z,75.85
2022-10-05T04:50:09.470Z,76.76
2022-10-05T04:52:42.794Z,76.22
2022-10-05T04:55:17.366Z,77.03
2022-10-05T04:57:50.766Z,77.39
2022-10-05T05:00:24.219Z,76.64
2022-10-05T05:03:17.012Z,76.88
2022-10-05T05:06:15.782Z,76.87
2022-10-05T05:08:56.968Z,76.55
2022-10-05T05:11:30.318Z,76.26
2022-10-05T05:14:17.611Z,76.76
2022-10-05T05:16:50.546Z,77.05
2022-10-05T05:19:37.940Z,77.30
2022-10-05T05:22:09.491Z,76.85
2022-10-05T05:24:55.156Z,77.60
2022-10-05T05:27:37.758Z,77.31
2022-10-05T05:30:13.067Z,77.05
2022-10-05T05:32:48.042Z,76.82
2022-10-05T05:35:29.059Z,77.80
2022-10-05T05:38:04.133Z,77.57
2022-10-05T05:40:35.845Z,77.85
2022-10-05T05:43:07.591Z,77.35
2022-10-05T05:45:42.452Z,77.13
2022-10-05T05:48:17.578Z,75.86
2022-10-05T05:50:50.823Z,75.51
2022-10-05T05:53:22.830Z,74.86
2022-10-05T05:55:53.360Z,75.82
2022-10-05T05:58:23.850Z,74.77
2022-10-05T06:00:55.205Z,75.05
2022-10-05T06:03:26.678Z,73.76
2022-10-05T06:05:58.071Z,73.92
2022-10-05T06:08:34.114Z,74.08
2022-10-05T06:11:12.291Z,74.44
2022-10-05T06:13:41.588Z,74.24
2022-10-05T06:16:14.846Z,73.61
2022-10-05T06:18:44.956Z,73.61
2022-10-05T06:21:17.098Z,73.09
2022-10-05T06:23:49.343Z,73.26
2022-10-05T06:26:36.269Z,73.60
2022-10-05T06:29:06.891Z,72.83
2022-10-05T06:31:55.299Z,72.57
2022-10-05T06:34:39.546Z,72.55
2022-10-05T06:37:14.063Z,72.61
2022-10-05T06:40:01.586Z,73.19
2022-10-05T06:42:44.974Z,72.33
2022-10-05T06:45:20.747Z,72.61
2022-10-05T06:48:18.224Z,71.89
2022-10-05T06:51:13.048Z,70.76
2022-10-05T06:54:04.641Z,70.70
2022-10-05T06:56:40.438Z,69.51
2022-10-05T06:59:11.037Z,69.16
2022-10-05T07:01:50.075Z,69.50
2022-10-05T07:04:36.927Z,70.05
2022-10-05T07:07:13.349Z,70.80
2022-10-05T07:09:48.714Z,70.92
2022-10-05T07:12:30.960Z,70.90
2022-10-05T07:15:20.853Z,70.43
2022-10-05T07:18:00.085Z,69.55
2022-10-05T07:20:31.697Z,69.56
2022-10-05T07:23:14.632Z,69.01
2022-10-05T07:25:44.860Z,69.73
2022-10-05T07:28:17.396Z,68.92
2022-10-05T07:30:53.676Z,68.36
2022-10-05T07:33:26.192Z,68.29
2022-10-05T07:36:17.747Z,68.26
2022-10-05T07:38:49.739Z,67.82
2022-10-05T07:41:20.883Z,67.16
2022-10-05T07:44:05.794Z,66.92
2022-10-05T07:46:48.039Z,66.74
2022-10-05T07:49:23.193Z,66.69
2022-10-05T07:51:54.160Z,67.38
2022-10-05T07:54:24.085Z,67.58
2022-10-05T07:56:56.860Z,67.18
2022-10-05T07:59:32.766Z,66.54
2022-10-05T08:02:08.762Z,66.74
2022-10-05T08:04:42.336Z,67.64
2022-10-05T08:07:14.377Z,67.26
2022-10-05T08:09:45.443Z,67.07
2022-10-05T08:12:25.585Z,67.09
2022-10-05T08:14:58.923Z,67.88
2022-10-05T08:17:37.120Z,67.13
2022-10-05T08:20:16.392Z,66.53
2022-10-05T08:22:48.398Z,67.76
2022-10-05T08:25:22.106Z,67.21
2022-10-05T08:27:53.262Z,66.03
2022-10-05T08:30:22.665Z,66.06
2022-10-05T08:32:55.244Z,66.80
2022-10-05T08:35:28.491Z,66.99
2022-10-05T08:37:57.309Z,66.15
2022-10-05T08:41:02.976Z,66.05
2022-10-05T08:44:10.774Z,66.09
2022-10-05T08:46:57.793Z,65.93
2022-10-05T08:49:58.016Z,65.32
2022-10-05T08:52:29.258Z,64.74
2022-10-05T08:55:35.234Z,64.22
2022-10-05T08:58:27.616Z,63.82
2022-10-05T09:01:00.874Z,63.81
2022-10-05T09:04:07.433Z,63.91
2022-10-05T09:06:52.666Z,63.02
2022-10-05T09:09:35.159Z,63.79
2022-10-05T09:12:21.012Z,63.32
2022-10-05T09:15:13.664Z,62.68
2022-10-05T09:18:04.544Z,62.63
2022-10-05T09:20:37.725Z,62.06
2022-10-05T09:23:13.830Z,61.71
2022-10-05T09:25:57.992Z,60.89
2022-10-05T09:28:31.678Z,60.82
2022-10-05T09:31:13.916Z,61.55
2022-10-05T09:33:59.725Z,61.43
2022-10-05T09:37:06.090Z,60.58
2022-10-05T09:40:01.705Z,60.57
2022-10-05T09:43:12.763Z,60.74
2022-10-05T09:46:14.643Z,60.75
2022-10-05T09:49:20.172Z,59.95
2022-10-05T09:52:06.106Z,59.34
2022-10-05T09:55:09.525Z,59.06
2022-10-05T09:57:55.807Z,58.59
2022-10-05T10:00:27.381Z,58.19
2022-10-05T10:03:32.396Z,58.73
2022-10-05T10:06:25.629Z,58.34
2022-10-05T10:09:11.107Z,57.54
2022-10-05T10:11:46.910Z,57.08
2022-10-05T10:15:03.046Z,57.11
2022-10-05T10:17:44.623Z,56.90
2022-10-05T10:20:27.280Z,57.74
2022-10-05T10:23:27.716Z,56.93
2022-10-05T10:26:37.390Z,56.91
2022-10-05T10:29:42.639Z,56.52
2022-10-05T10:32:56.989Z,56.66
2022-10-05T10:35:33.300Z,56.50
2022-10-05T10:38:24.796Z,55.70
2022-10-05T10:41:20.005Z,55.34
2022-10-05T10:44:31.072Z,55.12
2022-10-05T10:47:23.283Z,54.80
2022-10-05T10:50:24.058Z,55.64
2022-10-05T10:53:06.597Z,55.85
2022-10-05T10:55:43.239Z,55.91
2022-10-05T10:58:43.892Z,56.61
2022-10-05T11:01:26.308Z,56.00
2022-10-05T11:04:10.993Z,55.95
2022-10-05T11:06:51.882Z,54.92
2022-10-05T11:09:40.598Z,54.54
2022-10-05T11:12:58.602Z,54.66
2022-10-05T11:16:04.116Z,55.81
2022-10-05T11:18:43.937Z,55.05
2022-10-05T11:21:37.230Z,53.77
2022-10-05T11:24:27.149Z,53.58
2022-10-05T11:27:09.003Z,53.26
2022-10-05T11:29:51.449Z,52.76
2022-10-05T11:32:39.568Z,52.59
2022-10-05T11:35:34.157Z,52.52
2022-10-05T11:38:12.437Z,53.77
2022-10-05T11:41:07.271Z,53.17
2022-10-05T11:43:51.740Z,53.77
2022-10-05T11:46:24.583Z,53.56
2022-10-05T11:49:06.793Z,53.62
2022-10-05T11:51:41.228Z,54.14
2022-10-05T11:55:05.702Z,53.58
2022-10-05T11:57:33.601Z,52.35
2022-10-05T12:00:09.880Z,52.94
2022-10-05T12:03:16.263Z,51.42
2022-10-05T12:05:53.348Z,51.52
2022-10-05T12:08:29.699Z,50.65
2022-10-05T12:11:06.746Z,52.43
2022-10-05T12:13:41.091Z,52.47
2022-10-05T12:16:14.170Z,52.75
2022-10-05T12:18:57.271Z,52.94
2022-10-05T12:21:31.570Z,52.08
2022-10-05T12:24:03.833Z,52.46
2022-10-05T12:26:35.398Z,52.58
2022-10-05T12:29:08.731Z,52.98
2022-10-05T12:31:46.929Z,52.00
2022-10-05T12:34:24.018Z,51.50
2022-10-05T12:37:10.036Z,51.56
2022-10-05T12:39:44.130Z,52.76
2022-10-05T12:42:20.324Z,53.10
2022-10-05T12:45:10.432Z,54.18
2022-10-05T12:47:53.650Z,52.90
2022-10-05T12:50:27.161Z,53.54
2022-10-05T12:53:05.266Z,52.39
2022-10-05T12:55:40.866Z,52.08
2022-10-05T12:58:19.775Z,52.13
2022-10-05T13:00:52.819Z,52.90
2022-10-05T13:03:26.280Z,53.04
2022-10-05T13:06:02.744Z,53.32
2022-10-05T13:08:37.775Z,53.39
2022-10-05T13:11:14.782Z,52.81
2022-10-05T13:13:49.372Z,51.69
2022-10-05T13:16:24.285Z,51.92
2022-10-05T13:19:00.377Z,51.87
2022-10-05T13:21:40.853Z,51.17
2022-10-05T13:24:17.310Z,49.18
2022-10-05T13:26:49.472Z,49.79
2022-10-05T13:29:23.229Z,44.09
2022-10-05T13:31:54.508Z,44.02
2022-10-05T13:34:27.950Z,43.19
2022-10-05T13:37:07.253Z,45.44
2022-10-05T13:39:46.790Z,46.41
2022-10-05T13:42:17.436Z,46.65
2022-10-05T13:44:50.209Z,46.98
2022-10-05T13:47:25.028Z,47.01
2022-10-05T13:49:57.880Z,46.82
2022-10-05T13:52:39.143Z,45.64
2022-10-05T13:55:17.190Z,44.45
2022-10-05T13:57:55.113Z,45.88
2022-10-05T14:00:26.930Z,45.39
2022-10-05T14:02:57.398Z,44.05
2022-10-05T14:05:26.972Z,45.21
2022-10-05T14:07:57.002Z,46.18
2022-10-05T14:10:40.588Z,43.11
2022-10-05T14:13:22.783Z,42.01
2022-10-05T14:15:59.634Z,41.72
2022-10-05T14:18:29.772Z,37.05
2022-10-05T14:21:09.395Z,37.13
2022-10-05T14:23:38.350Z,40.10
2022-10-05T14:26:19.064Z,39.47
2022-10-05T14:28:58.845Z,40.27
2022-10-05T14:31:32.332Z,43.23
2022-10-05T14:34:21.017Z,44.47
2022-10-05T14:36:56.971Z,44.50
2022-10-05T14:39:26.990Z,45.27
2022-10-05T14:41:55.013Z,45.82
2022-10-05T14:47:03.741Z,45.90
2022-10-05T14:49:36.047Z,46.68
2022-10-05T14:52:28.905Z,46.71
2022-10-05T14:55:00.903Z,46.80
2022-10-05T14:57:34.103Z,46.96
2022-10-05T15:00:11.481Z,47.57
2022-10-05T15:02:53.617Z,47.73
2022-10-05T15:05:26.775Z,48.27
2022-10-05T15:07:58.714Z,47.82
2022-10-05T15:10:32.439Z,49.38
2022-10-05T15:13:11.521Z,49.31
2022-10-05T15:15:46.524Z,49.33
2022-10-05T15:18:21.427Z,49.74
2022-10-05T15:20:56.463Z,49.71
2022-10-05T15:23:27.263Z,49.72
2022-10-05T15:26:04.127Z,49.64
2022-10-05T15:28:38.901Z,49.82
2022-10-05T15:31:28.134Z,49.87
2022-10-05T15:34:00.728Z,50.19
2022-10-05T15:36:35.601Z,50.20
2022-10-05T15:39:10.805Z,50.21
2022-10-05T15:41:52.866Z,51.25
2022-10-05T15:44:31.443Z,51.27
2022-10-05T15:47:04.537Z,52.02
2022-10-05T15:49:38.008Z,52.08
2022-10-05T15:52:17.484Z,52.56
2022-10-05T15:55:10.513Z,52.14
2022-10-05T15:57:45.487Z,52.87
2022-10-05T16:00:14.630Z,53.09
2022-10-05T16:02:48.683Z,53.14
2022-10-05T16:05:45.008Z,53.63
2022-10-05T16:08:36.464Z,53.86
2022-10-05T16:11:06.511Z,53.91
2022-10-05T16:13:41.086Z,54.13
2022-10-05T16:16:20.833Z,54.51
2022-10-05T16:18:56.874Z,54.94
2022-10-05T16:21:31.546Z,54.99
2022-10-05T16:24:05.814Z,55.29
2022-10-05T16:26:43.444Z,56.03
2022-10-05T16:29:14.860Z,56.22
2022-10-05T16:31:49.069Z,56.73
2022-10-05T16:34:27.019Z,56.40
2022-10-05T16:37:00.342Z,56.52
2022-10-05T16:39:45.162Z,56.77
2022-10-05T16:42:21.071Z,57.55
2022-10-05T16:44:52.752Z,58.30
2022-10-05T16:47:36.029Z,58.17
2022-10-05T16:50:13.015Z,58.21
2022-10-05T16:52:43.424Z,58.84
2022-10-05T16:55:14.167Z,58.78
2022-10-05T16:57:45.470Z,59.18
2022-10-05T17:00:20.909Z,59.16
2022-10-05T17:03:11.269Z,59.28
2022-10-05T17:05:55.848Z,59.58
2022-10-05T17:08:40.757Z,59.66
2022-10-05T17:11:17.281Z,59.71
2022-10-05T17:14:10.379Z,60.17
2022-10-05T17:16:45.894Z,59.75
2022-10-05T17:19:34.248Z,59.92
2022-10-05T17:22:08.825Z,60.90
2022-10-05T17:24:47.522Z,61.57
2022-10-05T17:27:22.664Z,61.90
2022-10-05T17:29:52.497Z,62.15
2022-10-05T17:32:36.791Z,62.40
2022-10-05T17:35:18.687Z,62.93
2022-10-05T17:38:14.429Z,63.40
2022-10-05T17:40:58.485Z,63.26
2022-10-05T17:43:27.792Z,63.86
2022-10-05T17:46:00.388Z,64.06
2022-10-05T17:49:06.754Z,63.35
2022-10-05T17:52:39.220Z,64.15
2022-10-05T17:59:03.235Z,63.23
2022-10-05T18:01:39.515Z,62.92
2022-10-05T18:04:33.700Z,63.10
2022-10-05T18:07:04.907Z,63.66
2022-10-05T18:09:36.211Z,63.69
2022-10-05T18:12:11.402Z,64.51
2022-10-05T18:14:58.488Z,64.29
2022-10-05T18:17:41.098Z,64.84
2022-10-05T18:20:18.135Z,64.48
2022-10-05T18:22:46.833Z,63.41
2022-10-05T18:25:27.088Z,63.46
2022-10-05T18:28:15.936Z,64.15
2022-10-05T18:30:59.665Z,63.95
2022-10-05T18:34:02.714Z,63.08
2022-10-05T18:37:03.088Z,62.98
2022-10-05T18:39:46.009Z,63.41
2022-10-05T18:42:20.104Z,63.23
2022-10-05T18:44:51.159Z,63.36
2022-10-05T18:47:23.359Z,61.95
2022-10-05T18:50:12.556Z,61.50
2022-10-05T18:52:49.766Z,60.84
2022-10-05T18:55:22.611Z,61.27
2022-10-05T18:58:12.274Z,61.29
2022-10-05T19:01:36.959Z,61.09
2022-10-05T19:04:14.195Z,61.46
2022-10-05T19:06:50.447Z,61.07
2022-10-05T19:09:29.318Z,60.18
2022-10-05T19:12:01.484Z,60.36
2022-10-05T19:14:35.454Z,60.31
2022-10-05T19:17:18.089Z,60.21
2022-10-05T19:20:03.267Z,60.72
2022-10-05T19:22:44.290Z,60.51
2022-10-05T19:25:37.755Z,59.54
2022-10-05T19:28:15.298Z,59.46
2022-10-05T19:30:51.987Z,59.22
2022-10-05T19:33:42.594Z,59.28
2022-10-05T19:36:25.563Z,59.74
2022-10-05T19:39:03.460Z,59.25
2022-10-05T19:41:41.307Z,59.33
2022-10-05T19:44:17.775Z,59.43
2022-10-05T19:46:55.268Z,59.75
2022-10-05T19:49:44.356Z,59.94
2022-10-05T19:52:14.308Z,60.00
2022-10-05T19:54:43.885Z,60.61
2022-10-05T19:57:18.032Z,60.29
2022-10-05T19:59:47.756Z,59.93
2022-10-05T20:02:17.001Z,60.02
2022-10-05T20:04:46.875Z,61.09
2022-10-05T20:07:17.052Z,59.75
2022-10-05T20:09:58.527Z,59.94
2022-10-05T20:12:48.494Z,60.50
2022-10-05T20:15:37.140Z,59.82
2022-10-05T20:18:57.271Z,60.48
2022-10-05T20:21:52.949Z,59.76
2022-10-05T20:24:23.449Z,59.99
2022-10-05T20:27:05.126Z,60.64
2022-10-05T20:29:36.448Z,60.12
2022-10-05T20:32:08.628Z,60.13
2022-10-05T20:34:37.624Z,60.25
2022-10-05T20:37:05.454Z,60.51
2022-10-05T20:39:33.387Z,60.93
2022-10-05T20:42:02.618Z,60.55
2022-10-05T20:44:30.481Z,60.57
2022-10-05T20:46:58.725Z,60.69
2022-10-05T20:49:27.100Z,60.46
2022-10-05T20:51:55.743Z,60.70
2022-10-05T20:54:24.010Z,60.44
2022-10-05T20:56:53.118Z,60.94
2022-10-05T20:59:22.780Z,60.88
2022-10-05T21:01:51.312Z,60.02
2022-10-05T21:04:20.793Z,60.80
2022-10-05T21:06:48.764Z,60.60
2022-10-05T21:09:19.484Z,60.58
2022-10-05T21:11:48.759Z,60.53
2022-10-05T21:14:17.202Z,61.01
2022-10-05T21:16:46.430Z,61.35
2022-10-05T21:19:15.378Z,60.88
2022-10-05T21:21:44.125Z,60.72
2022-10-05T21:24:13.677Z,60.98
2022-10-05T21:26:41.691Z,61.08
2022-10-05T21:29:12.550Z,60.94
2022-10-05T21:31:41.031Z,61.05
2022-10-05T21:34:10.268Z,61.19
2022-10-05T21:36:38.109Z,60.99
2022-10-05T21:39:05.872Z,60.92
2022-10-05T21:41:33.633Z,61.17
2022-10-05T21:44:01.355Z,60.97
2022-10-05T21:46:30.115Z,60.84
2022-10-05T21:48:57.990Z,60.72
2022-10-05T21:51:27.949Z,61.53
2022-10-05T21:53:58.969Z,62.12
2022-10-05T21:56:29.490Z,61.66
2022-10-05T21:58:57.345Z,62.03
2022-10-05T22:01:25.141Z,61.74
2022-10-05T22:03:52.934Z,62.63
2022-10-05T22:06:20.634Z,63.19
2022-10-05T22:08:49.813Z,62.90
2022-10-05T22:11:18.779Z,63.44
2022-10-05T22:13:47.943Z,63.51
2022-10-05T22:16:16.637Z,65.13
2022-10-05T22:18:44.459Z,64.85
2022-10-05T22:21:13.424Z,65.14
2022-10-05T22:23:42.222Z,64.97
2022-10-05T22:26:12.731Z,64.94
2022-10-05T22:28:40.934Z,66.00
2022-10-05T22:31:09.492Z,67.38
2022-10-05T22:33:38.016Z,71.92
2022-10-05T22:36:07.030Z,77.54
2022-10-05T22:38:34.949Z,78.86
2022-10-05T22:41:02.815Z,79.63
2022-10-05T22:43:31.996Z,80.28
2022-10-05T22:46:01.036Z,79.64
2022-10-05T22:48:29.027Z,77.50
2022-10-05T22:50:57.272Z,77.34
2022-10-05T22:53:24.996Z,77.56
2022-10-05T22:55:52.799Z,76.40
2022-10-05T22:58:20.529Z,75.95
2022-10-05T23:01:04.967Z,75.17
2022-10-05T23:03:32.818Z,75.09
2022-10-05T23:06:03.662Z,75.03
2022-10-05T23:08:31.986Z,75.00
2022-10-05T23:11:03.392Z,75.41
2022-10-05T23:13:31.541Z,76.33
2022-10-05T23:16:06.826Z,77.33
2022-10-05T23:18:34.837Z,78.10
2022-10-05T23:21:02.839Z,80.29
2022-10-05T23:23:30.666Z,81.00
2022-10-05T23:26:00.595Z,81.50
2022-10-05T23:28:28.897Z,81.43
2022-10-05T23:31:01.825Z,82.53
2022-10-05T23:33:30.224Z,82.72
2022-10-05T23:35:59.242Z,83.18
2022-10-05T23:38:27.414Z,85.14
2022-10-05T23:40:56.024Z,85.41
2022-10-05T23:43:23.814Z,84.60
2022-10-05T23:45:51.761Z,82.80
2022-10-05T23:48:20.937Z,82.48
2022-10-05T23:50:49.900Z,81.90
2022-10-05T23:53:18.003Z,81.59
2022-10-05T23:55:45.998Z,82.20
2022-10-05T23:58:13.769Z,82.24
